Keiyo Maru No.15 — JD4282 — position and weather

sailwx.info

Track history (hours):
 
Tides and Currents Weather Stations Pressure Air Temp Water Temp Dewpoint Dewpoint Depression Visibility Wind Speed Wind Dir Waves Ship Positions

Keiyo Maru No.15

Last reported at 2018-Apr-24 23:52 UTC. Time now 2018-Apr-26 11:12 UTC.
Position N 33°15' E 131°36'.

Length 64 m; draft 3 m.

Type: Tanker. MMSI: 431010346.

Date/timePositionNaut miles runAvg speedWind from/ knotsBaromVisibWave heightAir tempDewpointWater temp
2018-Apr-24 23:52N 33°15' E 131°36'5 6.9
2018-Apr-24 23:12N 33°19' E 131°39'310.7
2018-Apr-24 22:54N 33°22' E 131°41'0 0.0
2018-Apr-24 14:01N 33°22' E 131°41'0 0.0
2018-Apr-24 13:50N 33°22' E 131°41'0 0.0
2018-Apr-24 13:25N 33°22' E 131°41'0 0.0
2018-Apr-24 10:32N 33°22' E 131°41'0 3.9
2018-Apr-24 10:30N 33°22' E 131°41'1012.1
2018-Apr-24 09:40N 33°31' E 131°46'413.0
2018-Apr-24 09:24N 33°34' E 131°47'513.0
2018-Apr-24 09:00N 33°38' E 131°43'613.0
2018-Apr-24 08:30N 33°42' E 131°36'713.1
2018-Apr-24 08:00N 33°45' E 131°29'612.7
2018-Apr-24 07:30N 33°47' E 131°22'612.6
2018-Apr-24 07:00N 33°50' E 131°15'612.1
2018-Apr-24 06:30N 33°53' E 131°09'612.2
2018-Apr-24 06:00N 33°57' E 131°03'5 9.9
2018-Apr-24 05:30N 33°57' E 130°57'4 8.6
2018-Apr-24 05:00N 33°55' E 130°53'1 2.3
2018-Apr-24 04:30N 33°55' E 130°51'0 0.0
2018-Apr-24 04:00N 33°55' E 130°51'0 0.0
2018-Apr-24 03:30N 33°55' E 130°51'0 0.0
2018-Apr-24 03:00N 33°55' E 130°51'0 0.1
2018-Apr-24 02:31N 33°55' E 130°51'3 5.4
2018-Apr-24 02:00N 33°57' E 130°50'1 1.9
2018-Apr-24 01:30N 33°57' E 130°49'0 0.0
2018-Apr-24 01:00N 33°57' E 130°49'0 0.0
2018-Apr-24 00:30N 33°57' E 130°49'0 0.0
2018-Apr-24 00:00N 33°57' E 130°49'0 0.0
2018-Apr-23 23:30N 33°57' E 130°49'0 0.0
2018-Apr-23 23:00N 33°57' E 130°49'0 0.0
2018-Apr-23 22:30N 33°57' E 130°49'1 2.6
2018-Apr-23 22:00N 33°57' E 130°51'3 5.7
2018-Apr-23 21:30N 33°55' E 130°51'0 0.5
2018-Apr-23 21:00N 33°54' E 130°51'0 0.0
2018-Apr-23 20:30N 33°54' E 130°51'0 0.0
2018-Apr-23 20:00N 33°54' E 130°51'0 0.0
2018-Apr-23 19:27N 33°54' E 130°51'0 0.0
2018-Apr-23 19:00N 33°54' E 130°51'0 0.0
2018-Apr-23 18:30N 33°54' E 130°51'0 0.0
2018-Apr-23 18:00N 33°54' E 130°51'0 0.0
2018-Apr-23 17:30N 33°54' E 130°51'0 0.0
2018-Apr-23 17:00N 33°54' E 130°51'0 0.0
2018-Apr-23 16:30N 33°54' E 130°51'0 0.0
2018-Apr-23 16:00N 33°54' E 130°51'0 0.0
2018-Apr-23 15:30N 33°54' E 130°51'0 0.0
2018-Apr-23 15:00N 33°54' E 130°51'0 0.0
2018-Apr-23 14:30N 33°54' E 130°51'0 0.0
2018-Apr-23 14:00N 33°54' E 130°51'0 0.0
2018-Apr-23 13:30N 33°54' E 130°51'0 0.0
2018-Apr-23 13:00N 33°54' E 130°51'0 0.0
2018-Apr-23 12:30N 33°54' E 130°51'0 0.0
2018-Apr-23 12:00N 33°54' E 130°51'0 0.0
2018-Apr-23 11:30N 33°54' E 130°51'0 0.0
2018-Apr-23 11:00N 33°54' E 130°51'0 0.0
2018-Apr-23 10:30N 33°54' E 130°51'0 0.0
2018-Apr-23 10:00N 33°54' E 130°51'0 0.0
2018-Apr-23 09:30N 33°54' E 130°51'0 0.0
2018-Apr-23 09:00N 33°54' E 130°51'0 0.0
2018-Apr-23 08:30N 33°54' E 130°51'0 0.0
2018-Apr-23 08:00N 33°54' E 130°51'0 0.0
2018-Apr-23 07:30N 33°54' E 130°51'0 0.0
2018-Apr-23 07:00N 33°54' E 130°51'0 0.0
2018-Apr-23 06:30N 33°54' E 130°51'0 0.0
2018-Apr-23 06:00N 33°54' E 130°51'0 0.6
2018-Apr-23 05:30N 33°55' E 130°51'0 0.0
2018-Apr-23 04:59N 33°55' E 130°51'0 0.0
2018-Apr-23 04:31N 33°55' E 130°51'0 0.0
2018-Apr-23 04:01N 33°55' E 130°51'2 3.6
2018-Apr-23 03:31N 33°55' E 130°53'3 6.4
2018-Apr-23 03:00N 33°57' E 130°57'5 9.2
2018-Apr-23 02:31N 33°58' E 131°02'611.2
2018-Apr-23 02:00N 33°55' E 131°07'611.6
2018-Apr-23 01:30N 33°52' E 131°13'612.3
2018-Apr-23 01:00N 33°50' E 131°20'612.2
2018-Apr-23 00:30N 33°48' E 131°27'612.2
2018-Apr-23 00:00N 33°45' E 131°33'611.8
2018-Apr-22 23:31N 33°41' E 131°39'611.3
2018-Apr-22 23:01N 33°38' E 131°44'510.8
2018-Apr-22 22:30N 33°33' E 131°47'610.9
2018-Apr-22 21:59N 33°27' E 131°46'510.8
2018-Apr-22 21:30N 33°23' E 131°43'0 0.6
2018-Apr-22 20:56N 33°23' E 131°42'0 0.0
2018-Apr-22 20:26N 33°23' E 131°42'0 0.0
2018-Apr-22 19:56N 33°23' E 131°42'0 0.0
2018-Apr-22 19:26N 33°23' E 131°42'0 0.0
2018-Apr-22 18:59N 33°23' E 131°42'0 0.1
2018-Apr-22 18:26N 33°23' E 131°42'0 0.0
2018-Apr-22 17:38N 33°23' E 131°42'0 0.1
2018-Apr-22 17:08N 33°23' E 131°42'0 0.0
2018-Apr-22 16:56N 33°23' E 131°42'0 0.0
2018-Apr-22 16:26N 33°23' E 131°42'0 0.0
2018-Apr-22 15:56N 33°23' E 131°42'0 0.0
2018-Apr-22 15:20N 33°23' E 131°42'0 0.0
2018-Apr-22 14:56N 33°23' E 131°42'0 0.0
2018-Apr-22 13:50N 33°23' E 131°42'0 0.0
2018-Apr-22 13:14N 33°23' E 131°42'0 0.0
2018-Apr-22 12:56N 33°23' E 131°42'0 0.0
2018-Apr-22 12:08N 33°23' E 131°42'0 0.0
2018-Apr-22 11:56N 33°23' E 131°42'0 0.0
2018-Apr-22 11:26N 33°23' E 131°42'0 0.0
2018-Apr-22 10:50N 33°23' E 131°42'0 0.1
2018-Apr-22 10:29N 33°23' E 131°42'0 0.0
2018-Apr-22 09:56N 33°23' E 131°42'0 0.0
2018-Apr-22 09:29N 33°23' E 131°42'0 0.0
2018-Apr-22 08:56N 33°23' E 131°42'0 0.0
2018-Apr-22 08:26N 33°23' E 131°42'0 0.0
2018-Apr-22 07:56N 33°23' E 131°42'0 0.4
2018-Apr-22 07:30N 33°22' E 131°42'611.6
2018-Apr-22 07:00N 33°17' E 131°41'1 0.3
2018-Apr-22 04:45N 33°16' E 131°41'1 2.8
2018-Apr-22 04:28N 33°17' E 131°41'610.1
2018-Apr-22 03:53N 33°23' E 131°42'0 0.2
2018-Apr-22 03:27N 33°23' E 131°41'0 0.0
2018-Apr-22 02:57N 33°23' E 131°41'0 0.0
2018-Apr-22 02:27N 33°23' E 131°41'0 0.0
2018-Apr-22 01:51N 33°23' E 131°41'0 0.0
2018-Apr-22 01:27N 33°23' E 131°41'0 0.0
2018-Apr-22 00:57N 33°23' E 131°41'0 0.0
2018-Apr-22 00:30N 33°23' E 131°41'0 0.0
2018-Apr-21 23:51N 33°23' E 131°41'0 0.0
2018-Apr-21 23:27N 33°23' E 131°41'0 0.0
2018-Apr-21 22:57N 33°23' E 131°41'0 0.0
2018-Apr-21 22:30N 33°23' E 131°41'0 0.0
2018-Apr-21 22:00N 33°23' E 131°41'0 0.1
2018-Apr-21 21:27N 33°23' E 131°42'0 0.0
2018-Apr-21 20:57N 33°23' E 131°42'0 0.0
2018-Apr-21 20:21N 33°23' E 131°42'0 0.0
2018-Apr-21 19:57N 33°23' E 131°42'0 0.0
2018-Apr-21 19:27N 33°23' E 131°42'0 0.0
2018-Apr-21 18:57N 33°23' E 131°42'0 0.0
2018-Apr-21 18:27N 33°23' E 131°42'0 0.0
2018-Apr-21 17:57N 33°23' E 131°42'0 0.0
2018-Apr-21 17:27N 33°23' E 131°42'0 0.0
2018-Apr-21 16:57N 33°23' E 131°42'0 0.0
2018-Apr-21 16:15N 33°23' E 131°42'0 0.0
2018-Apr-21 15:39N 33°23' E 131°42'0 0.0
2018-Apr-21 15:15N 33°23' E 131°42'0 0.0
2018-Apr-21 14:51N 33°23' E 131°42'0 0.1
2018-Apr-21 14:15N 33°23' E 131°41'0 0.2
2018-Apr-21 14:00N 33°23' E 131°42'4 8.2
2018-Apr-21 13:29N 33°26' E 131°45'810.5
2018-Apr-21 12:41N 33°34' E 131°47'210.4
2018-Apr-21 12:31N 33°36' E 131°45'510.7
2018-Apr-21 12:00N 33°40' E 131°42'510.5
2018-Apr-21 11:30N 33°42' E 131°36'611.9
2018-Apr-21 11:00N 33°45' E 131°29'611.6
2018-Apr-21 10:31N 33°47' E 131°23'611.8
2018-Apr-21 10:00N 33°49' E 131°16'612.0
2018-Apr-21 09:31N 33°52' E 131°10'612.4
2018-Apr-21 09:00N 33°56' E 131°04'511.2
2018-Apr-21 08:30N 33°58' E 130°57'510.1
2018-Apr-21 08:00N 33°55' E 130°52'1 1.9
2018-Apr-21 07:30N 33°55' E 130°51'0 0.0
2018-Apr-21 07:00N 33°55' E 130°51'0 0.0
2018-Apr-21 06:30N 33°55' E 130°51'0 0.0
2018-Apr-21 06:00N 33°55' E 130°51'0 1.0
2018-Apr-21 05:30N 33°55' E 130°52'2 3.3
2018-Apr-21 04:58N 33°56' E 130°53'0 0.0
2018-Apr-21 04:28N 33°56' E 130°53'0 0.0
2018-Apr-21 03:58N 33°56' E 130°53'0 0.0
2018-Apr-21 03:28N 33°56' E 130°53'0 0.0
2018-Apr-21 02:58N 33°56' E 130°53'0 0.0
2018-Apr-21 02:28N 33°56' E 130°53'0 0.0
2018-Apr-21 01:58N 33°56' E 130°53'0 0.0
2018-Apr-21 01:28N 33°56' E 130°53'0 0.0
2018-Apr-21 00:58N 33°56' E 130°53'0 0.1
2018-Apr-21 00:28N 33°56' E 130°53'0 0.0
2018-Apr-20 23:55N 33°56' E 130°53'0 0.0
2018-Apr-20 23:28N 33°56' E 130°53'0 0.0
2018-Apr-20 22:58N 33°56' E 130°53'0 0.1
2018-Apr-20 22:28N 33°56' E 130°53'2 4.7
2018-Apr-20 22:00N 33°55' E 130°55'4 8.4
2018-Apr-20 21:30N 33°58' E 130°58'5 9.2
2018-Apr-20 21:00N 33°58' E 131°03'611.0
2018-Apr-20 20:30N 33°55' E 131°09'510.9
2018-Apr-20 20:00N 33°52' E 131°15'611.1
2018-Apr-20 19:30N 33°52' E 131°21'611.2
2018-Apr-20 19:00N 33°51' E 131°28'611.1
2018-Apr-20 18:30N 33°49' E 131°35'611.1
2018-Apr-20 18:00N 33°48' E 131°41'611.3
2018-Apr-20 17:28N 33°47' E 131°48'611.3
2018-Apr-20 16:58N 33°46' E 131°55'611.2
2018-Apr-20 16:25N 33°46' E 132°02'1211.1
2018-Apr-20 15:22N 33°50' E 132°15'411.0
2018-Apr-20 14:58N 33°50' E 132°21'710.4
2018-Apr-20 14:19N 33°52' E 132°28'410.3
2018-Apr-20 13:57N 33°54' E 132°33'510.3
2018-Apr-20 13:27N 33°56' E 132°38'5 9.0
2018-Apr-20 12:56N 33°58' E 132°43'74 2.7
2018-Apr-19 09:19N 34°27' E 134°05'310.5
2018-Apr-19 09:00N 34°26' E 134°09'510.0
2018-Apr-19 08:30N 34°24' E 134°15'510.0
2018-Apr-19 08:00N 34°25' E 134°21'510.6
2018-Apr-19 07:31N 34°27' E 134°27'510.6
2018-Apr-19 07:00N 34°29' E 134°33'510.5
2018-Apr-19 06:30N 34°31' E 134°39'510.1
2018-Apr-19 05:59N 34°33' E 134°45'5 9.9
2018-Apr-19 05:31N 34°35' E 134°50'4 9.0
2018-Apr-19 05:01N 34°36' E 134°55'5 9.8
2018-Apr-19 04:30N 34°38' E 135°01'5 9.5
2018-Apr-19 04:00N 34°35' E 135°05'611.2
2018-Apr-19 03:30N 34°29' E 135°05'611.1
2018-Apr-19 03:00N 34°24' E 135°04'510.8
2018-Apr-19 02:30N 34°18' E 135°04'4 8.1
2018-Apr-19 02:00N 34°14' E 135°06'1 2.2
2018-Apr-19 01:30N 34°15' E 135°07'0 0.0
2018-Apr-19 01:00N 34°15' E 135°07'0 0.0
2018-Apr-19 00:30N 34°15' E 135°07'0 0.0
2018-Apr-19 00:00N 34°15' E 135°07'0 0.0
2018-Apr-18 23:30N 34°15' E 135°07'0 0.0
2018-Apr-18 23:00N 34°15' E 135°07'0 0.0
2018-Apr-18 22:30N 34°15' E 135°07'0 0.0
2018-Apr-18 22:00N 34°15' E 135°07'1 1.7
2018-Apr-18 21:30N 34°14' E 135°06'1 1.3
2018-Apr-18 20:58N 34°15' E 135°06'0 0.0
2018-Apr-18 20:28N 34°15' E 135°06'0 0.0
2018-Apr-18 19:58N 34°15' E 135°06'0 0.0
2018-Apr-18 19:28N 34°15' E 135°06'0 0.0
2018-Apr-18 18:58N 34°15' E 135°06'0 0.0
2018-Apr-18 18:28N 34°15' E 135°06'0 0.0
2018-Apr-18 17:58N 34°15' E 135°06'0 0.0
2018-Apr-18 17:28N 34°15' E 135°06'0 0.0
2018-Apr-18 16:58N 34°15' E 135°06'0 0.0
2018-Apr-18 16:28N 34°15' E 135°06'0 0.0
2018-Apr-18 15:58N 34°15' E 135°06'0 0.0
2018-Apr-18 15:28N 34°15' E 135°06'0 0.0
2018-Apr-18 14:58N 34°15' E 135°06'0 0.0
2018-Apr-18 14:28N 34°15' E 135°06'0 0.0
2018-Apr-18 13:58N 34°15' E 135°06'0 0.0
2018-Apr-18 13:28N 34°15' E 135°06'0 0.0
2018-Apr-18 12:58N 34°15' E 135°06'0 0.0
2018-Apr-18 12:28N 34°15' E 135°06'0 0.0
2018-Apr-18 11:58N 34°15' E 135°06'0 0.0
2018-Apr-18 11:28N 34°15' E 135°06'0 0.0
2018-Apr-18 10:58N 34°15' E 135°06'0 0.0
2018-Apr-18 10:28N 34°15' E 135°06'0 0.1
2018-Apr-18 09:55N 34°15' E 135°06'0 0.0
2018-Apr-18 09:28N 34°15' E 135°06'0 0.0
2018-Apr-18 08:58N 34°15' E 135°06'0 0.0
2018-Apr-18 08:28N 34°15' E 135°06'0 0.0
2018-Apr-18 07:58N 34°15' E 135°06'0 0.1
2018-Apr-18 07:28N 34°15' E 135°06'0 0.1
2018-Apr-18 06:58N 34°15' E 135°06'3 5.9
2018-Apr-18 06:31N 34°16' E 135°03'612.3
2018-Apr-18 06:00N 34°22' E 135°03'612.8
2018-Apr-18 05:30N 34°29' E 135°03'612.8
2018-Apr-18 05:01N 34°35' E 135°03'612.8
2018-Apr-18 04:31N 34°37' E 134°56'713.9
2018-Apr-18 04:01N 34°40' E 134°48'612.5
2018-Apr-18 03:31N 34°43' E 134°41'3 3.8
2018-Apr-18 02:39N 34°44' E 134°38'0 0.0
2018-Apr-18 02:27N 34°44' E 134°38'0 0.1
2018-Apr-18 02:00N 34°44' E 134°38'3 6.4
2018-Apr-18 01:30N 34°47' E 134°38'0 0.0
2018-Apr-18 00:58N 34°47' E 134°38'0 0.0
2018-Apr-18 00:30N 34°47' E 134°38'0 0.0
2018-Apr-18 00:00N 34°47' E 134°38'0 0.0
2018-Apr-17 23:29N 34°47' E 134°38'0 0.0
2018-Apr-17 23:00N 34°47' E 134°38'1 1.4
2018-Apr-17 22:27N 34°46' E 134°38'2 4.6
2018-Apr-17 22:00N 34°44' E 134°38'0 0.0
2018-Apr-17 21:25N 34°44' E 134°38'0 0.0
2018-Apr-17 20:55N 34°44' E 134°38'0 0.0
2018-Apr-17 20:25N 34°44' E 134°38'0 0.0
2018-Apr-17 18:49N 34°44' E 134°38'0 0.0
2018-Apr-17 18:25N 34°44' E 134°38'0 0.0
2018-Apr-17 17:55N 34°44' E 134°38'0 0.0
2018-Apr-17 17:25N 34°44' E 134°38'0 0.0
2018-Apr-17 15:55N 34°44' E 134°38'0 0.0
2018-Apr-17 15:25N 34°44' E 134°38'0 0.0
2018-Apr-17 14:55N 34°44' E 134°38'0 0.1
2018-Apr-17 14:07N 34°44' E 134°38'0 0.0
2018-Apr-17 13:49N 34°44' E 134°38'0 0.0
2018-Apr-17 11:37N 34°44' E 134°38'0 0.0
2018-Apr-17 11:25N 34°44' E 134°38'0 0.1
2018-Apr-17 10:29N 34°44' E 134°38'5 9.5
2018-Apr-17 10:00N 34°42' E 134°43'611.3
2018-Apr-17 09:30N 34°39' E 134°49'611.9
2018-Apr-17 09:00N 34°37' E 134°56'510.5
2018-Apr-17 08:30N 34°37' E 135°02'4 7.8
2018-Apr-17 08:00N 34°34' E 135°06'510.5
2018-Apr-17 07:30N 34°29' E 135°05'511.0
2018-Apr-17 07:01N 34°24' E 135°05'510.8
2018-Apr-17 06:30N 34°18' E 135°04'4 7.6
2018-Apr-17 06:00N 34°15' E 135°05'2 3.6
2018-Apr-17 05:31N 34°15' E 135°07'0 0.0
2018-Apr-17 05:00N 34°15' E 135°07'0 0.0
2018-Apr-17 04:31N 34°15' E 135°07'0 0.0
2018-Apr-17 04:00N 34°15' E 135°07'0 0.6
2018-Apr-17 03:30N 34°14' E 135°07'5 9.5
2018-Apr-17 03:01N 34°14' E 135°02'510.3
2018-Apr-17 02:30N 34°13' E 134°56'510.7
2018-Apr-17 02:00N 34°11' E 134°49'612.0
2018-Apr-17 01:30N 34°11' E 134°42'612.4
2018-Apr-17 01:00N 34°16' E 134°37'611.6
2018-Apr-17 00:30N 34°18' E 134°30'611.3
2018-Apr-17 00:00N 34°20' E 134°24'610.8
2018-Apr-16 23:30N 34°22' E 134°18'5 9.9
2018-Apr-16 22:59N 34°24' E 134°12'5 9.5
2018-Apr-16 22:27N 34°26' E 134°06'67 9.5
2018-Apr-16 15:22N 34°04' E 132°49'410.9
2018-Apr-16 14:58N 34°01' E 132°46'611.7
2018-Apr-16 14:30N 33°56' E 132°42'3712.3
2018-Apr-16 11:29N 33°34' E 132°06'712.8
2018-Apr-16 10:57N 33°30' E 131°59'612.8
2018-Apr-16 10:30N 33°27' E 131°54'612.4
2018-Apr-16 09:59N 33°23' E 131°48'611.6
2018-Apr-16 09:27N 33°19' E 131°42'2 0.1
2018-Apr-15 09:50N 33°21' E 131°41'510.4
2018-Apr-15 09:23N 33°25' E 131°45'810.6
2018-Apr-15 08:36N 33°33' E 131°47'110.5
2018-Apr-15 08:29N 33°34' E 131°47'511.0
2018-Apr-15 08:00N 33°39' E 131°43'510.7
2018-Apr-15 07:31N 33°42' E 131°38'611.6
2018-Apr-15 07:01N 33°44' E 131°32'612.4
2018-Apr-15 06:30N 33°46' E 131°25'612.4
2018-Apr-15 06:01N 33°49' E 131°18'612.5
2018-Apr-15 05:31N 33°51' E 131°11'612.9
2018-Apr-15 05:01N 33°55' E 131°05'612.1
2018-Apr-15 04:30N 33°58' E 130°58'510.7
2018-Apr-15 04:01N 33°55' E 130°53'1 2.9
2018-Apr-15 03:30N 33°55' E 130°51'0 0.0
2018-Apr-15 03:00N 33°55' E 130°51'0 0.0
2018-Apr-15 02:30N 33°55' E 130°51'0 0.0
2018-Apr-15 02:00N 33°55' E 130°51'0 0.0
2018-Apr-15 01:30N 33°55' E 130°51'0 0.0
2018-Apr-15 01:00N 33°55' E 130°51'0 0.0
2018-Apr-15 00:30N 33°55' E 130°51'0 0.0
2018-Apr-15 00:00N 33°55' E 130°51'  
Track history (hours):
 
Tides and Currents Weather Stations Pressure Air Temp Water Temp Dewpoint Dewpoint Depression Visibility Wind Speed Wind Dir Waves Ship Positions

Keiyo Maru No.15

Last reported at 2018-Apr-24 23:52 UTC. Time now 2018-Apr-26 11:12 UTC.
Position N 33°15' E 131°36'.

Length 64 m; draft 3 m.

Type: Tanker. MMSI: 431010346.

Date/timePositionNaut miles runAvg speedWind from/ knotsBaromVisibWave heightAir tempDewpointWater temp
2018-Apr-24 23:52N 33°15' E 131°36'5 6.9
2018-Apr-24 23:12N 33°19' E 131°39'310.7
2018-Apr-24 22:54N 33°22' E 131°41'0 0.0
2018-Apr-24 14:01N 33°22' E 131°41'0 0.0
2018-Apr-24 13:50N 33°22' E 131°41'0 0.0
2018-Apr-24 13:25N 33°22' E 131°41'0 0.0
2018-Apr-24 10:32N 33°22' E 131°41'0 3.9
2018-Apr-24 10:30N 33°22' E 131°41'1012.1
2018-Apr-24 09:40N 33°31' E 131°46'413.0
2018-Apr-24 09:24N 33°34' E 131°47'513.0
2018-Apr-24 09:00N 33°38' E 131°43'613.0
2018-Apr-24 08:30N 33°42' E 131°36'713.1
2018-Apr-24 08:00N 33°45' E 131°29'612.7
2018-Apr-24 07:30N 33°47' E 131°22'612.6
2018-Apr-24 07:00N 33°50' E 131°15'612.1
2018-Apr-24 06:30N 33°53' E 131°09'612.2
2018-Apr-24 06:00N 33°57' E 131°03'5 9.9
2018-Apr-24 05:30N 33°57' E 130°57'4 8.6
2018-Apr-24 05:00N 33°55' E 130°53'1 2.3
2018-Apr-24 04:30N 33°55' E 130°51'0 0.0
2018-Apr-24 04:00N 33°55' E 130°51'0 0.0
2018-Apr-24 03:30N 33°55' E 130°51'0 0.0
2018-Apr-24 03:00N 33°55' E 130°51'0 0.1
2018-Apr-24 02:31N 33°55' E 130°51'3 5.4
2018-Apr-24 02:00N 33°57' E 130°50'1 1.9
2018-Apr-24 01:30N 33°57' E 130°49'0 0.0
2018-Apr-24 01:00N 33°57' E 130°49'0 0.0
2018-Apr-24 00:30N 33°57' E 130°49'0 0.0
2018-Apr-24 00:00N 33°57' E 130°49'0 0.0
2018-Apr-23 23:30N 33°57' E 130°49'0 0.0
2018-Apr-23 23:00N 33°57' E 130°49'0 0.0
2018-Apr-23 22:30N 33°57' E 130°49'1 2.6
2018-Apr-23 22:00N 33°57' E 130°51'3 5.7
2018-Apr-23 21:30N 33°55' E 130°51'0 0.5
2018-Apr-23 21:00N 33°54' E 130°51'0 0.0
2018-Apr-23 20:30N 33°54' E 130°51'0 0.0
2018-Apr-23 20:00N 33°54' E 130°51'0 0.0
2018-Apr-23 19:27N 33°54' E 130°51'0 0.0
2018-Apr-23 19:00N 33°54' E 130°51'0 0.0
2018-Apr-23 18:30N 33°54' E 130°51'0 0.0
2018-Apr-23 18:00N 33°54' E 130°51'0 0.0
2018-Apr-23 17:30N 33°54' E 130°51'0 0.0
2018-Apr-23 17:00N 33°54' E 130°51'0 0.0
2018-Apr-23 16:30N 33°54' E 130°51'0 0.0
2018-Apr-23 16:00N 33°54' E 130°51'0 0.0
2018-Apr-23 15:30N 33°54' E 130°51'0 0.0
2018-Apr-23 15:00N 33°54' E 130°51'0 0.0
2018-Apr-23 14:30N 33°54' E 130°51'0 0.0
2018-Apr-23 14:00N 33°54' E 130°51'0 0.0
2018-Apr-23 13:30N 33°54' E 130°51'0 0.0
2018-Apr-23 13:00N 33°54' E 130°51'0 0.0
2018-Apr-23 12:30N 33°54' E 130°51'0 0.0
2018-Apr-23 12:00N 33°54' E 130°51'0 0.0
2018-Apr-23 11:30N 33°54' E 130°51'0 0.0
2018-Apr-23 11:00N 33°54' E 130°51'0 0.0
2018-Apr-23 10:30N 33°54' E 130°51'0 0.0
2018-Apr-23 10:00N 33°54' E 130°51'0 0.0
2018-Apr-23 09:30N 33°54' E 130°51'0 0.0
2018-Apr-23 09:00N 33°54' E 130°51'0 0.0
2018-Apr-23 08:30N 33°54' E 130°51'0 0.0
2018-Apr-23 08:00N 33°54' E 130°51'0 0.0
2018-Apr-23 07:30N 33°54' E 130°51'0 0.0
2018-Apr-23 07:00N 33°54' E 130°51'0 0.0
2018-Apr-23 06:30N 33°54' E 130°51'0 0.0
2018-Apr-23 06:00N 33°54' E 130°51'0 0.6
2018-Apr-23 05:30N 33°55' E 130°51'0 0.0
2018-Apr-23 04:59N 33°55' E 130°51'0 0.0
2018-Apr-23 04:31N 33°55' E 130°51'0 0.0
2018-Apr-23 04:01N 33°55' E 130°51'2 3.6
2018-Apr-23 03:31N 33°55' E 130°53'3 6.4
2018-Apr-23 03:00N 33°57' E 130°57'5 9.2
2018-Apr-23 02:31N 33°58' E 131°02'611.2
2018-Apr-23 02:00N 33°55' E 131°07'611.6
2018-Apr-23 01:30N 33°52' E 131°13'612.3
2018-Apr-23 01:00N 33°50' E 131°20'612.2
2018-Apr-23 00:30N 33°48' E 131°27'612.2
2018-Apr-23 00:00N 33°45' E 131°33'611.8
2018-Apr-22 23:31N 33°41' E 131°39'611.3
2018-Apr-22 23:01N 33°38' E 131°44'510.8
2018-Apr-22 22:30N 33°33' E 131°47'610.9
2018-Apr-22 21:59N 33°27' E 131°46'510.8
2018-Apr-22 21:30N 33°23' E 131°43'0 0.6
2018-Apr-22 20:56N 33°23' E 131°42'0 0.0
2018-Apr-22 20:26N 33°23' E 131°42'0 0.0
2018-Apr-22 19:56N 33°23' E 131°42'0 0.0
2018-Apr-22 19:26N 33°23' E 131°42'0 0.0
2018-Apr-22 18:59N 33°23' E 131°42'0 0.1
2018-Apr-22 18:26N 33°23' E 131°42'0 0.0
2018-Apr-22 17:38N 33°23' E 131°42'0 0.1
2018-Apr-22 17:08N 33°23' E 131°42'0 0.0
2018-Apr-22 16:56N 33°23' E 131°42'0 0.0
2018-Apr-22 16:26N 33°23' E 131°42'0 0.0
2018-Apr-22 15:56N 33°23' E 131°42'0 0.0
2018-Apr-22 15:20N 33°23' E 131°42'0 0.0
2018-Apr-22 14:56N 33°23' E 131°42'0 0.0
2018-Apr-22 13:50N 33°23' E 131°42'0 0.0
2018-Apr-22 13:14N 33°23' E 131°42'0 0.0
2018-Apr-22 12:56N 33°23' E 131°42'0 0.0
2018-Apr-22 12:08N 33°23' E 131°42'0 0.0
2018-Apr-22 11:56N 33°23' E 131°42'0 0.0
2018-Apr-22 11:26N 33°23' E 131°42'0 0.0
2018-Apr-22 10:50N 33°23' E 131°42'0 0.1
2018-Apr-22 10:29N 33°23' E 131°42'0 0.0
2018-Apr-22 09:56N 33°23' E 131°42'0 0.0
2018-Apr-22 09:29N 33°23' E 131°42'0 0.0
2018-Apr-22 08:56N 33°23' E 131°42'0 0.0
2018-Apr-22 08:26N 33°23' E 131°42'0 0.0
2018-Apr-22 07:56N 33°23' E 131°42'0 0.4
2018-Apr-22 07:30N 33°22' E 131°42'611.6
2018-Apr-22 07:00N 33°17' E 131°41'1 0.3
2018-Apr-22 04:45N 33°16' E 131°41'1 2.8
2018-Apr-22 04:28N 33°17' E 131°41'610.1
2018-Apr-22 03:53N 33°23' E 131°42'0 0.2
2018-Apr-22 03:27N 33°23' E 131°41'0 0.0
2018-Apr-22 02:57N 33°23' E 131°41'0 0.0
2018-Apr-22 02:27N 33°23' E 131°41'0 0.0
2018-Apr-22 01:51N 33°23' E 131°41'0 0.0
2018-Apr-22 01:27N 33°23' E 131°41'0 0.0
2018-Apr-22 00:57N 33°23' E 131°41'0 0.0
2018-Apr-22 00:30N 33°23' E 131°41'0 0.0
2018-Apr-21 23:51N 33°23' E 131°41'0 0.0
2018-Apr-21 23:27N 33°23' E 131°41'0 0.0
2018-Apr-21 22:57N 33°23' E 131°41'0 0.0
2018-Apr-21 22:30N 33°23' E 131°41'0 0.0
2018-Apr-21 22:00N 33°23' E 131°41'0 0.1
2018-Apr-21 21:27N 33°23' E 131°42'0 0.0
2018-Apr-21 20:57N 33°23' E 131°42'0 0.0
2018-Apr-21 20:21N 33°23' E 131°42'0 0.0
2018-Apr-21 19:57N 33°23' E 131°42'0 0.0
2018-Apr-21 19:27N 33°23' E 131°42'0 0.0
2018-Apr-21 18:57N 33°23' E 131°42'0 0.0
2018-Apr-21 18:27N 33°23' E 131°42'0 0.0
2018-Apr-21 17:57N 33°23' E 131°42'0 0.0
2018-Apr-21 17:27N 33°23' E 131°42'0 0.0
2018-Apr-21 16:57N 33°23' E 131°42'0 0.0
2018-Apr-21 16:15N 33°23' E 131°42'0 0.0
2018-Apr-21 15:39N 33°23' E 131°42'0 0.0
2018-Apr-21 15:15N 33°23' E 131°42'0 0.0
2018-Apr-21 14:51N 33°23' E 131°42'0 0.1
2018-Apr-21 14:15N 33°23' E 131°41'0 0.2
2018-Apr-21 14:00N 33°23' E 131°42'4 8.2
2018-Apr-21 13:29N 33°26' E 131°45'810.5
2018-Apr-21 12:41N 33°34' E 131°47'210.4
2018-Apr-21 12:31N 33°36' E 131°45'510.7
2018-Apr-21 12:00N 33°40' E 131°42'510.5
2018-Apr-21 11:30N 33°42' E 131°36'611.9
2018-Apr-21 11:00N 33°45' E 131°29'611.6
2018-Apr-21 10:31N 33°47' E 131°23'611.8
2018-Apr-21 10:00N 33°49' E 131°16'612.0
2018-Apr-21 09:31N 33°52' E 131°10'612.4
2018-Apr-21 09:00N 33°56' E 131°04'511.2
2018-Apr-21 08:30N 33°58' E 130°57'510.1
2018-Apr-21 08:00N 33°55' E 130°52'1 1.9
2018-Apr-21 07:30N 33°55' E 130°51'0 0.0
2018-Apr-21 07:00N 33°55' E 130°51'0 0.0
2018-Apr-21 06:30N 33°55' E 130°51'0 0.0
2018-Apr-21 06:00N 33°55' E 130°51'0 1.0
2018-Apr-21 05:30N 33°55' E 130°52'2 3.3
2018-Apr-21 04:58N 33°56' E 130°53'0 0.0
2018-Apr-21 04:28N 33°56' E 130°53'0 0.0
2018-Apr-21 03:58N 33°56' E 130°53'0 0.0
2018-Apr-21 03:28N 33°56' E 130°53'0 0.0
2018-Apr-21 02:58N 33°56' E 130°53'0 0.0
2018-Apr-21 02:28N 33°56' E 130°53'0 0.0
2018-Apr-21 01:58N 33°56' E 130°53'0 0.0
2018-Apr-21 01:28N 33°56' E 130°53'0 0.0
2018-Apr-21 00:58N 33°56' E 130°53'0 0.1
2018-Apr-21 00:28N 33°56' E 130°53'0 0.0
2018-Apr-20 23:55N 33°56' E 130°53'0 0.0
2018-Apr-20 23:28N 33°56' E 130°53'0 0.0
2018-Apr-20 22:58N 33°56' E 130°53'0 0.1
2018-Apr-20 22:28N 33°56' E 130°53'2 4.7
2018-Apr-20 22:00N 33°55' E 130°55'4 8.4
2018-Apr-20 21:30N 33°58' E 130°58'5 9.2
2018-Apr-20 21:00N 33°58' E 131°03'611.0
2018-Apr-20 20:30N 33°55' E 131°09'510.9
2018-Apr-20 20:00N 33°52' E 131°15'611.1
2018-Apr-20 19:30N 33°52' E 131°21'611.2
2018-Apr-20 19:00N 33°51' E 131°28'611.1
2018-Apr-20 18:30N 33°49' E 131°35'611.1
2018-Apr-20 18:00N 33°48' E 131°41'611.3
2018-Apr-20 17:28N 33°47' E 131°48'611.3
2018-Apr-20 16:58N 33°46' E 131°55'611.2
2018-Apr-20 16:25N 33°46' E 132°02'1211.1
2018-Apr-20 15:22N 33°50' E 132°15'411.0
2018-Apr-20 14:58N 33°50' E 132°21'710.4
2018-Apr-20 14:19N 33°52' E 132°28'410.3
2018-Apr-20 13:57N 33°54' E 132°33'510.3
2018-Apr-20 13:27N 33°56' E 132°38'5 9.0
2018-Apr-20 12:56N 33°58' E 132°43'74 2.7
2018-Apr-19 09:19N 34°27' E 134°05'310.5
2018-Apr-19 09:00N 34°26' E 134°09'510.0
2018-Apr-19 08:30N 34°24' E 134°15'510.0
2018-Apr-19 08:00N 34°25' E 134°21'510.6
2018-Apr-19 07:31N 34°27' E 134°27'510.6
2018-Apr-19 07:00N 34°29' E 134°33'510.5
2018-Apr-19 06:30N 34°31' E 134°39'510.1
2018-Apr-19 05:59N 34°33' E 134°45'5 9.9
2018-Apr-19 05:31N 34°35' E 134°50'4 9.0
2018-Apr-19 05:01N 34°36' E 134°55'5 9.8
2018-Apr-19 04:30N 34°38' E 135°01'5 9.5
2018-Apr-19 04:00N 34°35' E 135°05'611.2
2018-Apr-19 03:30N 34°29' E 135°05'611.1
2018-Apr-19 03:00N 34°24' E 135°04'510.8
2018-Apr-19 02:30N 34°18' E 135°04'4 8.1
2018-Apr-19 02:00N 34°14' E 135°06'1 2.2
2018-Apr-19 01:30N 34°15' E 135°07'0 0.0
2018-Apr-19 01:00N 34°15' E 135°07'0 0.0
2018-Apr-19 00:30N 34°15' E 135°07'0 0.0
2018-Apr-19 00:00N 34°15' E 135°07'0 0.0
2018-Apr-18 23:30N 34°15' E 135°07'0 0.0
2018-Apr-18 23:00N 34°15' E 135°07'0 0.0
2018-Apr-18 22:30N 34°15' E 135°07'0 0.0
2018-Apr-18 22:00N 34°15' E 135°07'1 1.7
2018-Apr-18 21:30N 34°14' E 135°06'1 1.3
2018-Apr-18 20:58N 34°15' E 135°06'0 0.0
2018-Apr-18 20:28N 34°15' E 135°06'0 0.0
2018-Apr-18 19:58N 34°15' E 135°06'0 0.0
2018-Apr-18 19:28N 34°15' E 135°06'0 0.0
2018-Apr-18 18:58N 34°15' E 135°06'0 0.0
2018-Apr-18 18:28N 34°15' E 135°06'0 0.0
2018-Apr-18 17:58N 34°15' E 135°06'0 0.0
2018-Apr-18 17:28N 34°15' E 135°06'0 0.0
2018-Apr-18 16:58N 34°15' E 135°06'0 0.0
2018-Apr-18 16:28N 34°15' E 135°06'0 0.0
2018-Apr-18 15:58N 34°15' E 135°06'0 0.0
2018-Apr-18 15:28N 34°15' E 135°06'0 0.0
2018-Apr-18 14:58N 34°15' E 135°06'0 0.0
2018-Apr-18 14:28N 34°15' E 135°06'0 0.0
2018-Apr-18 13:58N 34°15' E 135°06'0 0.0
2018-Apr-18 13:28N 34°15' E 135°06'0 0.0
2018-Apr-18 12:58N 34°15' E 135°06'0 0.0
2018-Apr-18 12:28N 34°15' E 135°06'0 0.0
2018-Apr-18 11:58N 34°15' E 135°06'0 0.0
2018-Apr-18 11:28N 34°15' E 135°06'0 0.0
2018-Apr-18 10:58N 34°15' E 135°06'0 0.0
2018-Apr-18 10:28N 34°15' E 135°06'0 0.1
2018-Apr-18 09:55N 34°15' E 135°06'0 0.0
2018-Apr-18 09:28N 34°15' E 135°06'0 0.0
2018-Apr-18 08:58N 34°15' E 135°06'0 0.0
2018-Apr-18 08:28N 34°15' E 135°06'0 0.0
2018-Apr-18 07:58N 34°15' E 135°06'0 0.1
2018-Apr-18 07:28N 34°15' E 135°06'0 0.1
2018-Apr-18 06:58N 34°15' E 135°06'3 5.9
2018-Apr-18 06:31N 34°16' E 135°03'612.3
2018-Apr-18 06:00N 34°22' E 135°03'612.8
2018-Apr-18 05:30N 34°29' E 135°03'612.8
2018-Apr-18 05:01N 34°35' E 135°03'612.8
2018-Apr-18 04:31N 34°37' E 134°56'713.9
2018-Apr-18 04:01N 34°40' E 134°48'612.5
2018-Apr-18 03:31N 34°43' E 134°41'3 3.8
2018-Apr-18 02:39N 34°44' E 134°38'0 0.0
2018-Apr-18 02:27N 34°44' E 134°38'0 0.1
2018-Apr-18 02:00N 34°44' E 134°38'3 6.4
2018-Apr-18 01:30N 34°47' E 134°38'0 0.0
2018-Apr-18 00:58N 34°47' E 134°38'0 0.0
2018-Apr-18 00:30N 34°47' E 134°38'0 0.0
2018-Apr-18 00:00N 34°47' E 134°38'0 0.0
2018-Apr-17 23:29N 34°47' E 134°38'0 0.0
2018-Apr-17 23:00N 34°47' E 134°38'1 1.4
2018-Apr-17 22:27N 34°46' E 134°38'2 4.6
2018-Apr-17 22:00N 34°44' E 134°38'0 0.0
2018-Apr-17 21:25N 34°44' E 134°38'0 0.0
2018-Apr-17 20:55N 34°44' E 134°38'0 0.0
2018-Apr-17 20:25N 34°44' E 134°38'0 0.0
2018-Apr-17 18:49N 34°44' E 134°38'0 0.0
2018-Apr-17 18:25N 34°44' E 134°38'0 0.0
2018-Apr-17 17:55N 34°44' E 134°38'0 0.0
2018-Apr-17 17:25N 34°44' E 134°38'0 0.0
2018-Apr-17 15:55N 34°44' E 134°38'0 0.0
2018-Apr-17 15:25N 34°44' E 134°38'0 0.0
2018-Apr-17 14:55N 34°44' E 134°38'0 0.1
2018-Apr-17 14:07N 34°44' E 134°38'0 0.0
2018-Apr-17 13:49N 34°44' E 134°38'0 0.0
2018-Apr-17 11:37N 34°44' E 134°38'0 0.0
2018-Apr-17 11:25N 34°44' E 134°38'0 0.1
2018-Apr-17 10:29N 34°44' E 134°38'5 9.5
2018-Apr-17 10:00N 34°42' E 134°43'611.3
2018-Apr-17 09:30N 34°39' E 134°49'611.9
2018-Apr-17 09:00N 34°37' E 134°56'510.5
2018-Apr-17 08:30N 34°37' E 135°02'4 7.8
2018-Apr-17 08:00N 34°34' E 135°06'510.5
2018-Apr-17 07:30N 34°29' E 135°05'511.0
2018-Apr-17 07:01N 34°24' E 135°05'510.8
2018-Apr-17 06:30N 34°18' E 135°04'4 7.6
2018-Apr-17 06:00N 34°15' E 135°05'2 3.6
2018-Apr-17 05:31N 34°15' E 135°07'0 0.0
2018-Apr-17 05:00N 34°15' E 135°07'0 0.0
2018-Apr-17 04:31N 34°15' E 135°07'0 0.0
2018-Apr-17 04:00N 34°15' E 135°07'0 0.6
2018-Apr-17 03:30N 34°14' E 135°07'5 9.5
2018-Apr-17 03:01N 34°14' E 135°02'510.3
2018-Apr-17 02:30N 34°13' E 134°56'510.7
2018-Apr-17 02:00N 34°11' E 134°49'612.0
2018-Apr-17 01:30N 34°11' E 134°42'612.4
2018-Apr-17 01:00N 34°16' E 134°37'611.6
2018-Apr-17 00:30N 34°18' E 134°30'611.3
2018-Apr-17 00:00N 34°20' E 134°24'610.8
2018-Apr-16 23:30N 34°22' E 134°18'5 9.9
2018-Apr-16 22:59N 34°24' E 134°12'5 9.5
2018-Apr-16 22:27N 34°26' E 134°06'67 9.5
2018-Apr-16 15:22N 34°04' E 132°49'410.9
2018-Apr-16 14:58N 34°01' E 132°46'611.7
2018-Apr-16 14:30N 33°56' E 132°42'3712.3
2018-Apr-16 11:29N 33°34' E 132°06'712.8
2018-Apr-16 10:57N 33°30' E 131°59'612.8
2018-Apr-16 10:30N 33°27' E 131°54'612.4
2018-Apr-16 09:59N 33°23' E 131°48'611.6
2018-Apr-16 09:27N 33°19' E 131°42'2 0.1
2018-Apr-15 09:50N 33°21' E 131°41'510.4
2018-Apr-15 09:23N 33°25' E 131°45'810.6
2018-Apr-15 08:36N 33°33' E 131°47'110.5
2018-Apr-15 08:29N 33°34' E 131°47'511.0
2018-Apr-15 08:00N 33°39' E 131°43'510.7
2018-Apr-15 07:31N 33°42' E 131°38'611.6
2018-Apr-15 07:01N 33°44' E 131°32'612.4
2018-Apr-15 06:30N 33°46' E 131°25'612.4
2018-Apr-15 06:01N 33°49' E 131°18'612.5
2018-Apr-15 05:31N 33°51' E 131°11'612.9
2018-Apr-15 05:01N 33°55' E 131°05'612.1
2018-Apr-15 04:30N 33°58' E 130°58'510.7
2018-Apr-15 04:01N 33°55' E 130°53'1 2.9
2018-Apr-15 03:30N 33°55' E 130°51'0 0.0
2018-Apr-15 03:00N 33°55' E 130°51'0 0.0
2018-Apr-15 02:30N 33°55' E 130°51'0 0.0
2018-Apr-15 02:00N 33°55' E 130°51'0 0.0
2018-Apr-15 01:30N 33°55' E 130°51'0 0.0
2018-Apr-15 01:00N 33°55' E 130°51'0 0.0
2018-Apr-15 00:30N 33°55' E 130°51'0 0.0
2018-Apr-15 00:00N 33°55' E 130°51'  

Dump ship's entire track history